KB1JDX Weather Reports


Display with metric or nautical units.
time (UTC)temp
F
wind
direction
speed
MPH
gust
MPH
rain 1hr
in
rain 24hr
in
rain mn
in
humidity
%
barometer
mb
20181018121022 35 144 0.0 1.0 0.00 0.02 0.00 67 1023.3
20181018115023 35 144 0.0 1.0 0.00 0.02 0.00 68 1022.9
20181018114920 35 144 0.0 1.0 0.00 0.02 0.00 68 1022.8
20181018113023 35 144 0.0 3.0 0.00 0.02 0.00 66 1022.2
20181018111023 35 144 0.0 5.0 0.00 0.02 0.00 65 1021.8
20181018104919 36 144 0.0 5.0 0.00 0.02 0.00 63 1021.9
20181018095024 38 307 1.0 11.0 0.00 0.02 0.00 57 1020.7
20181018094919 38 308 1.0 11.0 0.00 0.02 0.00 57 1020.7
20181018093024 39 326 1.0 6.0 0.00 0.02 0.00 57 1020.1
20181018091024 39 323 4.0 11.0 0.00 0.02 0.00 60 1019.8
20181018085023 39 19 0.0 11.0 0.00 0.02 0.00 59 1019.6
20181018084919 39 19 0.0 11.0 0.00 0.02 0.00 59 1019.6
20181018083023 40 319 1.0 6.0 0.00 0.02 0.00 58 1019.1
20181018081024 40 355 2.0 2.0 0.00 0.02 0.00 62 1019.1
20181018075027 40 5 1.0 2.0 0.00 0.02 0.00 65 1018.6
20181018074921 40 57 0.0 2.0 0.00 0.02 0.00 65 1018.6
20181018073024 39 135 0.0 9.0 0.00 0.02 0.00 67 1018.3
20181018071023 40 40 0.0 4.0 0.00 0.02 0.00 66 1018.3
20181018065023 41 40 0.0 4.0 0.00 0.02 0.00 64 1018.1
20181018064920 41 40 0.0 4.0 0.00 0.02 0.00 64 1018.1
20181018063023 41 273 0.0 12.0 0.00 0.02 0.00 64 1017.9
20181018061024 42 341 0.0 5.0 0.00 0.02 0.00 64 1017.3
20181018055023 42 307 1.0 5.0 0.00 0.02 0.00 63 1017.3
20181018054920 42 308 0.0 5.0 0.00 0.02 0.00 63 1017.1
20181018053023 42 321 0.0 5.0 0.00 0.02 0.00 66 1017.0
20181018051023 42 248 2.0 8.0 0.00 0.02 0.00 69 1017.0
20181018045023 43 278 0.0 8.0 0.00 0.02 0.00 68 1016.7
20181018044920 43 278 0.0 8.0 0.00 0.02 0.00 68 1016.7
20181018043025 43 298 1.0 7.0 0.00 0.02 0.00 67 1016.5
20181018041025 43 13 1.0 8.0 0.00 0.02 0.02 66 1016.4
20181018035025 43 320 1.0 8.0 0.00 0.02 0.02 68 1016.2
20181018034920 43 321 2.0 8.0 0.00 0.02 0.02 68 1016.2
20181018033023 44 193 0.0 9.0 0.00 0.02 0.02 67 1016.2
20181018031023 44 279 0.0 9.0 0.00 0.02 0.02 66 1016.2
20181018025023 44 296 5.0 9.0 0.00 0.02 0.02 66 1015.9
20181018024921 44 317 0.0 9.0 0.00 0.02 0.02 66 1015.8
20181018023023 45 312 1.0 5.0 0.00 0.02 0.02 66 1015.6
20181018021023 45 306 1.0 7.0 0.00 0.02 0.02 69 1015.6
20181018015023 45 304 5.0 7.0 0.00 0.02 0.02 70 1015.0
20181018014921 45 230 1.0 7.0 0.00 0.02 0.02 70 1015.1
20181018013024 46 338 1.0 8.0 0.00 0.02 0.02 72 1014.5
20181018011024 46 306 0.0 7.0 0.00 0.02 0.02 71 1014.4
20181018005025 46 287 1.0 7.0 0.00 0.02 0.02 71 1014.1
20181018004921 46 287 0.0 7.0 0.00 0.02 0.02 70 1014.1
20181018003025 46 341 1.0 14.0 0.00 0.02 0.02 71 1013.9
20181018001024 47 313 1.0 4.0 0.00 0.02 0.02 72 1013.6
20181017235024 48 308 0.0 4.0 0.00 0.02 0.02 72 1013.5
20181017234921 48 308 0.0 4.0 0.00 0.02 0.02 72 1013.6
20181017233025 47 39 0.0 5.0 0.00 0.02 0.02 73 1013.3
20181017231024 47 5 0.0 6.0 0.02 0.02 0.02 75 1013.1
20181017225024 47 327 2.0 6.0 0.02 0.02 0.02 77 1012.5
20181017224921 47 327 2.0 6.0 0.02 0.02 0.02 77 1012.5
20181017223024 47 311 1.0 13.0 0.02 0.02 0.02 78 1012.4
20181017221024 48 324 1.0 9.0 0.00 0.00 0.00 79 1011.9
20181017215023 51 319 2.0 9.0 0.00 0.00 0.00 75 1011.5
20181017214921 51 319 4.0 9.0 0.00 0.00 0.00 75 1011.5
20181017213025 56 304 2.0 13.0 0.00 0.00 0.00 58 1010.2
20181017211024 56 280 1.0 9.0 0.00 0.00 0.00 56 1009.4
20181017205024 58 182 1.0 9.0 0.00 0.00 0.00 53 1009.1
20181017204922 58 284 2.0 9.0 0.00 0.00 0.00 53 1009.2
20181017203025 58 234 1.0 6.0 0.00 0.00 0.00 53 1008.8
20181017201024 58 17 1.0 15.0 0.00 0.00 0.00 55 1008.8
20181017195026 59 311 1.0 15.0 0.00 0.00 0.00 50 1008.5
20181017194920 59 10 2.0 15.0 0.00 0.00 0.00 51 1008.6
20181017193027 61 200 8.0 14.0 0.00 0.00 0.00 50 1008.4
20181017191024 62 300 6.0 10.0 0.00 0.00 0.00 51 1008.1
20181017185024 61 207 3.0 10.0 0.00 0.00 0.00 50 1008.1
20181017184919 61 301 2.0 10.0 0.00 0.00 0.00 50 1008.1
20181017183024 62 306 3.0 16.0 0.00 0.00 0.00 49 1008.4
20181017181023 62 266 1.0 13.0 0.00 0.00 0.00 50 1008.5
20181017175023 62 205 4.0 13.0 0.00 0.00 0.00 49 1008.5
20181017174919 62 250 13.0 13.0 0.00 0.00 0.00 49 1008.5
20181017173025 62 209 7.0 15.0 0.00 0.00 0.00 52 1008.7
20181017165023 60 308 0.0 11.0 0.00 0.00 0.00 55 1009.4
20181017164920 60 179 10.0 11.0 0.00 0.00 0.00 55 1009.4
20181017163022 59 181 1.0 10.0 0.00 0.00 0.00 58 1010.2
20181017161022 57 202 3.0 10.0 0.00 0.00 0.00 59 1010.5
20181017155023 56 209 8.0 10.0 0.00 0.00 0.00 61 1011.0
20181017154919 56 201 1.0 10.0 0.00 0.00 0.00 60 1011.0
20181017153022 55 198 5.0 11.0 0.00 0.00 0.00 64 1011.4
20181017151022 53 209 5.0 10.0 0.00 0.00 0.00 66 1011.7
20181017144919 52 207 8.0 10.0 0.00 0.00 0.00 67 1012.2
20181017143023 50 219 1.0 9.0 0.00 0.00 0.00 73 1012.4
20181017141023 48 219 4.0 5.0 0.00 0.00 0.00 79 1012.5
20181017135022 45 180 2.0 5.0 0.00 0.00 0.00 81 1013.0
20181017134919 45 180 1.0 5.0 0.00 0.00 0.00 81 1013.0
20181017133023 43 169 2.0 7.0 0.00 0.00 0.00 80 1013.5
20181017131022 41 167 0.0 2.0 0.00 0.00 0.00 79 1013.4
20181017125024 39 223 2.0 2.0 0.00 0.00 0.00 80 1013.7
20181017124921 39 223 0.0 2.0 0.00 0.00 0.00 80 1013.7
20181017123026 37 192 0.0 0.0 0.00 0.00 0.00 80 1013.1